Time;durP1;ratioP1;P1;durP2;ratioP2;P2;SDS_P1;SDS_P2;PMS_P1;PMS_P2;Temp;Humidity;BMP_temperature;BMP_pressure;BME280_temperature;BME280_humidity;BME280_pressure;Samples;Min_cycle;Max_cycle;Signal;HPM_P1;HPM_P2
2021/12/01 00:00:28;;;;;;;1.45;1.02;;;;;;;8.48;100.00;99985.00;2073581;28;20018;-66
2021/12/01 00:01:29;;;;;;;2.07;1.50;;;;;;;8.49;100.00;99978.88;2073653;28;20533;-70
2021/12/01 00:02:30;;;;;;;1.65;1.20;;;;;;;8.50;100.00;99984.94;2064943;28;20873;-67
2021/12/01 00:03:30;;;;;;;1.53;1.30;;;;;;;8.49;100.00;99986.69;2065090;28;20063;-64
2021/12/01 00:04:30;;;;;;;3.07;1.60;;;;;;;8.50;100.00;99979.72;2073623;28;20030;-68
2021/12/01 00:05:33;;;;;;;1.43;1.30;;;;;;;8.49;100.00;99983.25;2064949;28;20030;-68
2021/12/01 00:06:34;;;;;;;1.70;1.15;;;;;;;8.48;100.00;99972.00;2057143;28;20031;-66
2021/12/01 00:07:36;;;;;;;1.65;1.30;;;;;;;8.49;100.00;99978.06;2065049;28;20038;-67
2021/12/01 00:08:37;;;;;;;1.73;1.30;;;;;;;8.49;100.00;99963.28;2064841;28;20073;-70
2021/12/01 00:09:37;;;;;;;1.77;1.58;;;;;;;8.48;100.00;99956.41;2064937;28;20030;-66
2021/12/01 00:10:38;;;;;;;1.77;1.50;;;;;;;8.48;100.00;99961.59;2073703;28;20018;-65
2021/12/01 00:11:39;;;;;;;2.42;1.58;;;;;;;8.48;100.00;99960.75;2064871;28;20217;-66
2021/12/01 00:12:39;;;;;;;1.90;1.50;;;;;;;8.48;100.00;99946.00;2064900;28;20077;-68
2021/12/01 00:13:39;;;;;;;2.73;1.40;;;;;;;8.46;100.00;99947.81;2073604;28;20026;-68
2021/12/01 00:14:40;;;;;;;1.50;1.20;;;;;;;8.46;100.00;99942.63;2073605;28;20053;-67
2021/12/01 00:15:42;;;;;;;1.50;1.10;;;;;;;8.46;100.00;99953.00;2073664;28;20022;-67
2021/12/01 00:16:42;;;;;;;1.92;1.27;;;;;;;8.46;100.00;99942.63;2073671;28;20021;-69
2021/12/01 00:17:43;;;;;;;2.47;1.30;;;;;;;8.45;100.00;99935.75;2073594;28;20439;-68
2021/12/01 00:18:43;;;;;;;2.03;1.33;;;;;;;8.45;100.00;99940.94;2073665;28;20495;-68
2021/12/01 00:19:43;;;;;;;1.90;1.30;;;;;;;8.45;100.00;99930.53;2073618;28;20493;-69
2021/12/01 00:20:45;;;;;;;2.00;1.37;;;;;;;8.44;100.00;99939.25;2073654;28;20017;-66
2021/12/01 00:21:46;;;;;;;1.90;1.50;;;;;;;8.45;100.00;99925.34;2073603;28;20022;-68
2021/12/01 00:22:47;;;;;;;2.83;1.40;;;;;;;8.45;100.00;99929.72;2073581;28;20479;-68
2021/12/01 00:23:47;;;;;;;;;;;;;;;8.45;100.00;99914.94;2073996;28;20017;-67
2021/12/01 00:24:48;;;;;;;2.20;1.25;;;;;;;8.45;100.00;99914.94;2073432;28;19952;-66
2021/12/01 00:25:49;;;;;;;1.60;1.08;;;;;;;8.44;100.00;99913.25;2073461;28;20014;-66
2021/12/01 00:26:51;;;;;;;2.25;1.27;;;;;;;8.45;100.00;99904.53;2064795;28;20070;-66
2021/12/01 00:27:53;;;;;;;1.70;1.45;;;;;;;8.46;100.00;99911.41;2064907;28;20392;-67
2021/12/01 00:28:53;;;;;;;1.73;1.40;;;;;;;8.44;100.00;99897.66;2073471;28;20030;-67
2021/12/01 00:29:54;;;;;;;2.00;1.30;;;;;;;8.44;100.00;99896.81;2073531;28;20141;-69
2021/12/01 00:30:56;;;;;;;;;;;;;;;8.44;100.00;99891.59;2074025;28;20024;-67
2021/12/01 00:31:56;;;;;;;3.92;1.63;;;;;;;8.44;100.00;99892.47;2076211;28;20400;-67
2021/12/01 00:32:57;;;;;;;2.77;1.40;;;;;;;8.43;100.00;99884.72;2073567;28;20030;-68
2021/12/01 00:33:57;;;;;;;2.03;1.50;;;;;;;8.43;100.00;99884.72;2073598;28;20044;-67
2021/12/01 00:34:59;;;;;;;4.20;1.80;;;;;;;8.40;100.00;99870.13;2073492;28;20033;-68
2021/12/01 00:35:59;;;;;;;1.50;1.10;;;;;;;8.41;100.00;99879.59;2073485;28;20028;-66
2021/12/01 00:36:59;;;;;;;1.77;1.30;;;;;;;8.42;100.00;99867.44;2073459;28;20116;-66
2021/12/01 00:38:00;;;;;;;2.63;1.50;;;;;;;8.42;100.00;99865.69;2073499;28;20494;-67
2021/12/01 00:39:00;;;;;;;2.67;1.53;;;;;;;8.42;100.00;99868.28;2073513;28;20088;-69
2021/12/01 00:40:00;;;;;;;1.70;1.40;;;;;;;8.42;100.00;99870.88;2073430;28;20026;-68
2021/12/01 00:41:03;;;;;;;2.05;1.75;;;;;;;8.40;100.00;99864.94;2073478;28;20032;-67
2021/12/01 00:42:03;;;;;;;2.58;1.58;;;;;;;8.40;100.00;99867.53;2073477;28;20029;-68
2021/12/01 00:43:04;;;;;;;2.30;1.42;;;;;;;8.38;100.00;99859.78;2073278;28;20414;-70
2021/12/01 00:44:06;;;;;;;1.95;1.42;;;;;;;8.38;100.00;99861.53;2073474;28;20045;-67
2021/12/01 00:45:12;;;;;;;1.95;1.48;;;;;;;8.38;100.00;99852.00;2073444;28;20033;-69
2021/12/01 00:46:19;;;;;;;5.28;2.03;;;;;;;8.38;100.00;99852.00;2073479;28;20030;-68
2021/12/01 00:47:20;;;;;;;2.40;1.80;;;;;;;8.39;100.00;99847.66;2064756;28;20037;-68
2021/12/01 00:48:21;;;;;;;2.30;1.60;;;;;;;8.38;100.00;99866.75;2064726;28;20436;-69
2021/12/01 00:49:21;;;;;;;2.70;1.83;;;;;;;8.37;100.00;99844.28;2073374;28;20034;-66
2021/12/01 00:50:23;;;;;;;2.03;1.40;;;;;;;8.37;100.00;99845.13;2073411;28;20022;-68
2021/12/01 00:51:24;;;;;;;1.80;1.50;;;;;;;8.37;100.00;99839.06;2064620;28;20034;-66
2021/12/01 00:52:24;;;;;;;1.80;1.40;;;;;;;8.37;100.00;99844.28;2064765;28;20039;-68
2021/12/01 00:53:25;;;;;;;2.63;2.13;;;;;;;8.37;100.00;99834.72;2073400;28;20056;-67
2021/12/01 00:54:25;;;;;;;1.97;1.60;;;;;;;8.36;100.00;99827.81;2073437;28;20022;-68
2021/12/01 00:55:26;;;;;;;2.13;1.52;;;;;;;8.36;100.00;99842.59;2064580;28;20351;-69
2021/12/01 00:56:27;;;;;;;3.20;2.08;;;;;;;8.35;100.00;99838.31;2064788;28;20113;-68
2021/12/01 00:57:27;;;;;;;2.17;1.83;;;;;;;8.35;100.00;99840.91;2073455;28;20045;-67
2021/12/01 00:58:27;;;;;;;2.77;1.87;;;;;;;8.34;100.00;99831.41;2073453;28;20034;-69
2021/12/01 00:59:27;;;;;;;2.03;1.67;;;;;;;8.32;100.00;99825.47;2073431;28;20038;-69
2021/12/01 01:00:29;;;;;;;4.00;2.00;;;;;;;8.31;100.00;99829.00;2064565;28;20034;-67
2021/12/01 01:01:30;;;;;;;3.22;1.92;;;;;;;8.31;100.00;99840.22;2064748;28;20038;-67
2021/12/01 01:02:30;;;;;;;2.20;1.67;;;;;;;8.31;100.00;99834.19;2064694;28;20038;-67
2021/12/01 01:03:31;;;;;;;4.87;1.87;;;;;;;8.30;100.00;99828.13;2064787;28;20077;-67
2021/12/01 01:04:31;;;;;;;2.42;1.80;;;;;;;8.30;100.00;99828.13;2064714;28;20144;-70
2021/12/01 01:05:32;;;;;;;2.00;1.60;;;;;;;8.29;100.00;99823.00;2066081;28;20475;-68
2021/12/01 01:06:32;;;;;;;3.63;2.15;;;;;;;8.28;100.00;99827.34;2066204;28;20038;-68
2021/12/01 01:07:34;;;;;;;3.03;1.90;;;;;;;8.29;100.00;99823.00;2066263;28;20027;-69
2021/12/01 01:08:34;;;;;;;;;;;;;;;8.29;100.00;99820.41;2075401;28;20037;-70
2021/12/01 01:09:35;;;;;;;3.65;1.92;;;;;;;8.29;100.00;99816.06;2075016;28;19909;-68
2021/12/01 01:17:00;;;;;;;4.15;2.40;;;;;;;8.26;100.00;99792.81;2075020;28;20033;-68
2021/12/01 01:18:08;;;;;;;3.30;2.53;;;;;;;8.25;100.00;99796.34;2066184;28;20042;-68
2021/12/01 01:19:08;;;;;;;3.38;2.63;;;;;;;8.23;100.00;99795.56;2067043;28;20082;-68
2021/12/01 01:20:12;;;;;;;3.80;2.55;;;;;;;8.23;100.00;99796.41;2066155;28;20154;-67
2021/12/01 01:21:14;;;;;;;3.45;2.80;;;;;;;8.24;100.00;99792.88;2066606;28;20034;-66
2021/12/01 01:22:14;;;;;;;3.60;2.88;;;;;;;8.24;100.00;99798.09;2066066;28;20030;-69
2021/12/01 01:23:15;;;;;;;3.10;2.80;;;;;;;8.24;100.00;99787.69;2066174;28;20033;-68
2021/12/01 01:24:16;;;;;;;3.13;2.50;;;;;;;8.24;100.00;99761.69;2074772;28;20496;-70
2021/12/01 01:25:17;;;;;;;4.07;3.28;;;;;;;8.24;100.00;99782.50;2066063;28;20109;-66
2021/12/01 01:26:19;;;;;;;4.27;3.20;;;;;;;8.23;100.00;99775.63;2066098;28;20519;-67
2021/12/01 01:27:20;;;;;;;5.22;3.25;;;;;;;8.25;100.00;99773.78;2074778;28;20034;-69
2021/12/01 01:28:20;;;;;;;5.13;3.17;;;;;;;8.24;100.00;99782.50;2074761;28;20113;-66
2021/12/01 01:29:21;;;;;;;3.87;3.53;;;;;;;8.24;100.00;99766.91;2074808;28;20048;-67
2021/12/01 01:30:22;;;;;;;4.28;2.95;;;;;;;8.25;100.00;99772.94;2074825;28;20021;-64
2021/12/01 01:31:22;;;;;;;3.27;2.90;;;;;;;8.25;100.00;99773.78;2074771;28;20026;-67
2021/12/01 01:32:24;;;;;;;3.60;3.15;;;;;;;8.29;100.00;99771.88;2074864;28;20053;-69
2021/12/01 01:33:25;;;;;;;5.30;2.80;;;;;;;8.31;100.00;99753.59;2074830;28;20030;-67
2021/12/01 01:34:26;;;;;;;4.07;2.83;;;;;;;8.31;100.00;99779.59;2074800;28;20034;-66
2021/12/01 01:35:27;;;;;;;3.65;2.50;;;;;;;8.28;100.00;99764.97;2074781;28;20061;-70
2021/12/01 01:36:27;;;;;;;4.07;3.00;;;;;;;8.29;100.00;99768.44;2074787;28;20045;-68
2021/12/01 01:37:28;;;;;;;3.05;2.55;;;;;;;8.28;100.00;99766.75;2074743;28;20383;-67
2021/12/01 01:38:32;;;;;;;4.45;2.92;;;;;;;8.27;100.00;99772.84;2074837;28;20034;-67
2021/12/01 01:39:33;;;;;;;3.58;2.88;;;;;;;8.28;100.00;99769.34;2074716;28;20391;-69
2021/12/01 01:40:34;;;;;;;3.55;2.88;;;;;;;8.27;100.00;99760.69;2074726;28;20462;-67
2021/12/01 01:41:35;;;;;;;4.75;3.33;;;;;;;8.28;100.00;99761.56;2074663;28;20044;-67
2021/12/01 01:42:35;;;;;;;5.47;2.80;;;;;;;8.29;100.00;99763.22;2074743;28;20061;-69
2021/12/01 01:43:37;;;;;;;3.67;2.83;;;;;;;8.27;100.00;99770.25;2065793;28;20297;-66
2021/12/01 01:44:38;;;;;;;4.15;3.28;;;;;;;8.27;100.00;99759.84;2058013;28;20027;-69
2021/12/01 01:45:38;;;;;;;4.00;3.17;;;;;;;8.25;100.00;99762.56;2057855;28;20107;-67
2021/12/01 01:46:40;;;;;;;3.40;3.10;;;;;;;8.26;100.00;99769.44;2065955;28;20034;-66
2021/12/01 01:48:00;;;;;;;3.58;2.83;;;;;;;8.31;100.00;99757.03;2074586;28;20118;-69
2021/12/01 01:49:18;;;;;;;3.85;2.67;;;;;;;8.30;100.00;99759.69;2074602;28;20029;-70
2021/12/01 01:50:34;;;;;;;3.15;2.38;;;;;;;8.30;100.00;99759.69;2074556;28;20112;-68
2021/12/01 01:51:35;;;;;;;2.70;2.22;;;;;;;8.29;100.00;99758.03;2074575;28;20029;-68
2021/12/01 01:52:36;;;;;;;3.50;1.95;;;;;;;8.26;100.00;99743.44;2074680;28;20030;-70
2021/12/01 01:53:36;;;;;;;2.90;2.53;;;;;;;8.26;100.00;99743.44;2074627;28;20033;-71
2021/12/01 01:54:36;;;;;;;3.90;2.37;;;;;;;8.24;100.00;99745.25;2074655;28;20057;-68
2021/12/01 01:55:42;;;;;;;4.07;2.70;;;;;;;8.23;100.00;99723.63;2074678;28;20511;-69
2021/12/01 01:56:44;;;;;;;2.85;2.28;;;;;;;8.23;100.00;99739.22;2074512;28;20038;-68
2021/12/01 01:57:44;;;;;;;;;;;;;;;8.21;100.00;99725.47;2075009;28;20378;-67
2021/12/01 01:58:45;;;;;;;3.63;2.25;;;;;;;8.20;100.00;99728.97;2065838;28;19917;-69
2021/12/01 01:59:46;;;;;;;3.45;2.47;;;;;;;8.18;100.00;99723.00;2065809;28;20439;-69
2021/12/01 02:00:52;;;;;;;3.40;2.13;;;;;;;8.19;100.00;99727.31;2074558;28;20088;-66
2021/12/01 02:01:55;;;;;;;3.33;2.22;;;;;;;8.17;100.00;99731.72;2074521;28;20092;-72
2021/12/01 02:02:58;;;;;;;4.65;2.38;;;;;;;8.13;100.00;99712.00;2065630;28;20380;-70
2021/12/01 02:03:59;;;;;;;3.53;2.33;;;;;;;8.14;100.00;99718.06;2065734;28;20038;-67
2021/12/01 02:04:59;;;;;;;5.97;2.08;;;;;;;8.15;100.00;99717.13;2065862;28;20045;-68
2021/12/01 02:06:00;;;;;;;2.83;2.50;;;;;;;8.14;100.00;99720.66;2074493;28;20135;-68
2021/12/01 02:07:02;;;;;;;4.40;2.33;;;;;;;8.13;100.00;99712.00;2074540;28;20082;-67
2021/12/01 02:08:03;;;;;;;3.22;2.55;;;;;;;8.14;100.00;99720.66;2074527;28;20025;-71
2021/12/01 02:09:06;;;;;;;3.35;2.30;;;;;;;8.13;100.00;99719.81;2074533;28;20033;-67
2021/12/01 02:10:06;;;;;;;3.13;2.78;;;;;;;8.14;100.00;99716.28;2074447;28;20034;-69
2021/12/01 02:11:10;;;;;;;5.30;2.38;;;;;;;8.14;100.00;99708.50;2074462;28;20021;-69
2021/12/01 02:12:11;;;;;;;2.92;2.35;;;;;;;8.15;100.00;99710.19;2065628;28;20085;-71
2021/12/01 02:13:11;;;;;;;2.53;2.30;;;;;;;8.11;100.00;99703.47;2065920;28;20030;-68
2021/12/01 02:14:12;;;;;;;2.60;1.90;;;;;;;8.14;100.00;99694.69;2074262;28;20175;-68
2021/12/01 02:15:12;;;;;;;2.55;2.08;;;;;;;8.15;100.00;99689.41;2074480;28;20106;-67
2021/12/01 02:16:14;;;;;;;3.70;2.17;;;;;;;8.16;100.00;99690.22;2074195;28;20409;-68
2021/12/01 02:17:14;;;;;;;3.30;2.03;;;;;;;8.16;100.00;99692.81;2074409;28;20088;-69
2021/12/01 02:18:15;;;;;;;3.30;2.40;;;;;;;8.14;100.00;99687.69;2074480;28;20494;-72
2021/12/01 02:19:15;;;;;;;2.05;1.73;;;;;;;8.10;100.00;99687.03;2074525;28;20038;-73
2021/12/01 02:20:20;;;;;;;2.78;1.80;;;;;;;8.12;100.00;99679.16;2074332;28;20041;-68
2021/12/01 02:21:28;;;;;;;2.60;2.00;;;;;;;8.12;100.00;99664.38;2074413;28;20029;-71
2021/12/01 02:22:31;;;;;;;2.80;1.85;;;;;;;8.12;100.00;99673.97;2074385;28;20033;-66
2021/12/01 02:23:35;;;;;;;2.10;1.50;;;;;;;8.11;100.00;99667.91;2074326;28;20033;-70
2021/12/01 02:24:35;;;;;;;4.97;1.67;;;;;;;8.12;100.00;99666.16;2074337;28;20124;-68
2021/12/01 02:25:35;;;;;;;4.77;2.37;;;;;;;8.14;100.00;99669.50;2074372;28;20467;-67
2021/12/01 02:26:45;;;;;;;2.40;1.60;;;;;;;8.15;100.00;99665.16;2074319;28;20063;-69
2021/12/01 02:27:45;;;;;;;2.33;1.45;;;;;;;8.12;100.00;99666.16;2074408;28;20451;-69
2021/12/01 02:28:51;;;;;;;2.67;1.70;;;;;;;8.12;100.00;99653.16;2074490;28;20027;-71
2021/12/01 02:29:51;;;;;;;4.57;1.70;;;;;;;8.11;100.00;99654.91;2074457;28;20064;-69
2021/12/01 02:30:52;;;;;;;3.60;1.70;;;;;;;8.11;100.00;99652.31;2074453;28;20014;-71
2021/12/01 02:31:53;;;;;;;3.17;1.83;;;;;;;8.13;100.00;99644.44;2074406;28;20391;-69
2021/12/01 02:32:53;;;;;;;3.75;1.63;;;;;;;8.13;100.00;99647.03;2074392;28;20022;-70
2021/12/01 02:33:54;;;;;;;2.30;1.73;;;;;;;8.11;100.00;99630.72;2074328;28;20041;-68
2021/12/01 02:34:54;;;;;;;2.08;1.58;;;;;;;8.11;100.00;99630.72;2074372;28;20607;-70
2021/12/01 02:35:55;;;;;;;3.10;1.50;;;;;;;8.11;100.00;99635.91;2074401;28;20510;-69
2021/12/01 02:36:57;;;;;;;2.20;1.43;;;;;;;8.11;100.00;99638.50;2074273;28;20025;-67
2021/12/01 02:37:58;;;;;;;2.78;1.85;;;;;;;8.10;100.00;99623.81;2074373;28;20284;-69
2021/12/01 02:39:01;;;;;;;1.80;1.20;;;;;;;8.11;100.00;99622.91;2074326;28;20079;-69
2021/12/01 02:40:02;;;;;;;2.80;1.63;;;;;;;8.10;100.00;99634.22;2065535;28;20030;-68
2021/12/01 02:41:03;;;;;;;3.13;1.77;;;;;;;8.10;100.00;99623.81;2065728;28;20038;-71
2021/12/01 02:42:06;;;;;;;3.22;1.80;;;;;;;8.09;100.00;99623.00;2074335;28;20360;-68
2021/12/01 02:43:06;;;;;;;1.55;1.40;;;;;;;8.09;100.00;99622.13;2074054;28;20566;-70
2021/12/01 02:44:08;;;;;;;2.00;1.60;;;;;;;8.08;100.00;99612.69;2074330;28;20033;-69
2021/12/01 02:45:08;;;;;;;;;;;;;;;8.07;100.00;99613.56;2065957;28;20113;-70
2021/12/01 02:46:08;;;;;;;3.63;1.60;;;;;;;8.03;100.00;99604.25;2065638;28;19929;-69
2021/12/01 02:47:09;;;;;;;2.97;1.60;;;;;;;8.03;100.00;99602.50;2065581;28;20041;-68
2021/12/01 02:48:12;;;;;;;2.80;2.05;;;;;;;8.03;100.00;99599.06;2065551;28;20103;-72
2021/12/01 02:49:18;;;;;;;3.53;2.00;;;;;;;8.02;100.00;99597.38;2074226;28;20021;-69
2021/12/01 02:50:18;;;;;;;2.65;1.80;;;;;;;7.98;100.00;99592.34;2074169;28;20124;-74
2021/12/01 02:51:23;;;;;;;3.20;1.97;;;;;;;7.98;100.00;99591.53;2074159;28;20030;-67
2021/12/01 02:52:23;;;;;;;4.00;1.67;;;;;;;7.96;100.00;99588.16;2065451;28;20396;-68
2021/12/01 02:53:25;;;;;;;2.40;1.97;;;;;;;7.97;100.00;99597.63;2065576;28;20105;-68
2021/12/01 02:54:26;;;;;;;4.40;2.35;;;;;;;7.96;100.00;99585.56;2065417;28;20034;-69
2021/12/01 02:55:28;;;;;;;3.00;2.13;;;;;;;7.95;100.00;99576.94;2065511;28;20029;-70
2021/12/01 02:56:31;;;;;;;3.45;2.08;;;;;;;7.93;100.00;99570.97;2074238;28;20057;-70
2021/12/01 02:57:50;;;;;;;3.33;1.90;;;;;;;7.94;100.00;99577.84;2065369;28;20022;-70
2021/12/01 02:58:51;;;;;;;3.55;2.17;;;;;;;7.93;100.00;99578.75;2068167;28;20463;-70
2021/12/01 02:59:52;;;;;;;3.33;2.67;;;;;;;7.91;100.00;99574.56;2074194;28;20022;-68
2021/12/01 03:00:54;;;;;;;3.10;2.45;;;;;;;7.91;100.00;99570.22;2074065;28;20091;-72
2021/12/01 03:01:55;;;;;;;3.10;2.60;;;;;;;7.90;100.00;99576.31;2074046;28;20025;-72
2021/12/01 03:02:56;;;;;;;3.80;2.60;;;;;;;7.89;100.00;99569.44;2074069;28;20028;-67
2021/12/01 03:03:58;;;;;;;3.20;2.65;;;;;;;7.90;100.00;99559.91;2074164;28;20026;-68
2021/12/01 03:04:59;;;;;;;3.92;2.28;;;;;;;7.87;100.00;99560.88;2074125;28;20033;-71
2021/12/01 03:05:59;;;;;;;3.23;2.60;;;;;;;7.87;100.00;99566.06;2074192;28;20041;-68
2021/12/01 03:07:01;;;;;;;4.85;2.50;;;;;;;7.85;100.00;99557.53;2074169;28;20061;-70
2021/12/01 03:08:01;;;;;;;4.25;2.60;;;;;;;7.85;100.00;99557.53;2074062;28;20545;-70
2021/12/01 03:09:07;;;;;;;3.57;2.50;;;;;;;7.84;100.00;99553.28;2074145;28;20021;-69
2021/12/01 03:10:08;;;;;;;3.63;2.55;;;;;;;7.81;100.00;99546.47;2074042;28;20390;-68
2021/12/01 03:11:09;;;;;;;3.45;2.53;;;;;;;7.83;100.00;99556.75;2074076;28;20026;-67
2021/12/01 03:12:09;;;;;;;4.18;2.67;;;;;;;7.84;100.00;99551.50;2065340;28;20050;-67
2021/12/01 03:13:09;;;;;;;3.30;2.33;;;;;;;7.84;100.00;99551.50;2065394;28;20034;-67
2021/12/01 03:14:14;;;;;;;4.33;2.73;;;;;;;7.85;100.00;99541.97;2074001;28;20048;-70
2021/12/01 03:15:16;;;;;;;2.95;2.45;;;;;;;7.84;100.00;99540.28;2073977;28;20041;-68
2021/12/01 03:16:17;;;;;;;3.22;2.10;;;;;;;7.83;100.00;99544.63;2074064;28;20029;-68
2021/12/01 03:17:17;;;;;;;3.40;2.47;;;;;;;7.84;100.00;99535.09;2074033;28;20089;-68
2021/12/01 03:18:17;;;;;;;4.13;2.60;;;;;;;7.83;100.00;99538.59;2073983;28;20037;-67
2021/12/01 03:19:18;;;;;;;3.67;2.40;;;;;;;7.84;100.00;99535.91;2074042;28;20022;-70
2021/12/01 03:20:22;;;;;;;3.57;2.70;;;;;;;7.83;100.00;99529.03;2073992;28;20429;-66
2021/12/01 03:21:22;;;;;;;4.28;2.60;;;;;;;7.83;100.00;99523.00;2074023;28;20108;-68
2021/12/01 03:22:23;;;;;;;3.13;2.30;;;;;;;7.85;100.00;99527.22;2074005;28;20026;-69
2021/12/01 03:23:25;;;;;;;4.60;2.38;;;;;;;7.87;100.00;99524.50;2073970;28;20022;-66
2021/12/01 03:24:25;;;;;;;3.10;2.53;;;;;;;7.86;100.00;99522.84;2065275;28;20022;-72
2021/12/01 03:25:27;;;;;;;3.13;2.83;;;;;;;7.84;100.00;99522.94;2057236;28;20031;-69
2021/12/01 03:26:29;;;;;;;4.38;2.50;;;;;;;7.83;100.00;99526.44;2065438;28;20471;-69
2021/12/01 03:27:29;;;;;;;4.95;2.40;;;;;;;7.79;100.00;99516.28;2073381;28;20038;-69
2021/12/01 03:28:30;;;;;;;3.00;2.47;;;;;;;7.82;100.00;99516.13;2073781;28;20116;-69
2021/12/01 03:29:30;;;;;;;3.97;2.60;;;;;;;7.84;100.00;99516.91;2065131;28;20035;-70
2021/12/01 03:30:34;;;;;;;3.87;2.57;;;;;;;7.82;100.00;99501.41;2065265;28;20469;-68
2021/12/01 03:31:34;;;;;;;4.70;2.67;;;;;;;7.84;100.00;99501.31;2073907;28;20388;-68
2021/12/01 03:32:35;;;;;;;3.93;2.77;;;;;;;7.85;100.00;99505.59;2065232;28;20034;-70
2021/12/01 03:33:36;;;;;;;4.25;2.75;;;;;;;7.86;100.00;99496.88;2065293;28;20473;-71
2021/12/01 03:34:36;;;;;;;3.33;2.30;;;;;;;7.84;100.00;99494.34;2065132;28;20018;-69
2021/12/01 03:35:39;;;;;;;6.10;2.53;;;;;;;7.83;100.00;99497.03;2065249;28;20062;-71
2021/12/01 03:36:40;;;;;;;3.45;2.60;;;;;;;7.82;100.00;99505.75;2073901;28;20483;-68
2021/12/01 03:37:43;;;;;;;4.20;2.63;;;;;;;7.81;100.00;99498.88;2073911;28;20022;-71
2021/12/01 03:38:43;;;;;;;3.47;2.35;;;;;;;7.82;100.00;99487.56;2065072;28;20021;-70
2021/12/01 03:39:43;;;;;;;3.65;2.33;;;;;;;7.81;100.00;99485.91;2065057;28;20026;-70
2021/12/01 03:40:44;;;;;;;3.63;2.70;;;;;;;7.79;100.00;99485.13;2073786;28;20033;-69
2021/12/01 03:41:45;;;;;;;3.00;2.55;;;;;;;7.79;100.00;99490.31;2073837;28;20386;-71
2021/12/01 03:42:45;;;;;;;5.57;3.33;;;;;;;7.75;100.00;99483.59;2065058;28;20022;-69
2021/12/01 03:43:46;;;;;;;5.47;2.30;;;;;;;7.73;100.00;99470.69;2056927;28;20044;-69
2021/12/01 03:44:46;;;;;;;4.85;2.45;;;;;;;7.70;100.00;99470.88;2065198;28;20057;-69
2021/12/01 03:45:47;;;;;;;4.07;3.10;;;;;;;7.64;100.00;99482.44;2073835;28;20026;-69
2021/12/01 03:46:48;;;;;;;4.97;2.95;;;;;;;7.60;100.00;99473.13;2073878;28;20014;-70
2021/12/01 03:47:49;;;;;;;4.25;3.00;;;;;;;7.57;100.00;99453.31;2073834;28;20096;-72
2021/12/01 03:48:49;;;;;;;5.88;2.80;;;;;;;7.57;100.00;99475.88;2065053;28;20064;-67
2021/12/01 03:49:49;;;;;;;5.50;3.07;;;;;;;7.54;100.00;99478.63;2057085;28;20456;-70
2021/12/01 03:50:51;;;;;;;4.60;3.07;;;;;;;7.52;100.00;99475.28;2065059;28;20064;-68
2021/12/01 03:51:52;;;;;;;5.90;3.45;;;;;;;7.48;100.00;99469.41;2073716;28;20075;-68
2021/12/01 03:52:52;;;;;;;5.73;3.33;;;;;;;7.45;100.00;99467.81;2073940;28;20471;-70
2021/12/01 03:53:53;;;;;;;3.58;2.72;;;;;;;7.45;100.00;99452.22;2073795;28;20044;-69
2021/12/01 03:54:53;;;;;;;3.53;2.90;;;;;;;7.45;100.00;99452.22;2073841;28;20018;-69
2021/12/01 03:55:53;;;;;;;4.40;3.00;;;;;;;7.45;100.00;99460.00;2073852;28;20045;-68
2021/12/01 03:56:53;;;;;;;4.63;3.17;;;;;;;7.46;100.00;99438.31;2073818;28;20018;-68
2021/12/01 03:57:54;;;;;;;4.53;3.60;;;;;;;7.46;100.00;99446.09;2065109;28;20117;-67
2021/12/01 03:58:54;;;;;;;4.70;3.40;;;;;;;7.44;100.00;99445.38;2056982;28;20022;-70
2021/12/01 03:59:54;;;;;;;6.27;3.23;;;;;;;7.41;100.00;99424.75;2065061;28;20054;-69
2021/12/01 04:00:55;;;;;;;5.13;3.27;;;;;;;7.40;100.00;99424.81;2064984;28;20022;-69
2021/12/01 04:01:55;;;;;;;3.77;3.07;;;;;;;7.39;100.00;99411.00;2065044;28;20153;-68
2021/12/01 04:02:55;;;;;;;4.37;3.33;;;;;;;7.41;100.00;99416.13;2073750;28;20068;-68
2021/12/01 04:03:58;;;;;;;5.67;3.60;;;;;;;7.40;100.00;99411.84;2073713;28;20018;-68
2021/12/01 04:04:58;;;;;;;3.63;3.25;;;;;;;7.40;100.00;99402.31;2065012;28;20087;-67
2021/12/01 04:05:58;;;;;;;4.63;3.17;;;;;;;7.40;100.00;99397.13;2065099;28;20029;-66
2021/12/01 04:06:58;;;;;;;6.83;3.23;;;;;;;7.42;100.00;99397.88;2073786;28;20479;-68
2021/12/01 04:08:00;;;;;;;4.90;3.07;;;;;;;7.45;100.00;99399.47;2073727;28;20036;-67
2021/12/01 04:09:03;;;;;;;4.32;2.83;;;;;;;7.45;100.00;99389.94;2073700;28;20022;-67
2021/12/01 04:10:07;;;;;;;5.60;3.03;;;;;;;7.44;100.00;99396.03;2073645;28;20475;-69
2021/12/01 04:11:08;;;;;;;4.65;2.75;;;;;;;7.44;100.00;99393.44;2073695;28;20030;-66
2021/12/01 04:12:08;;;;;;;4.50;2.97;;;;;;;7.45;100.00;99383.88;2073725;28;20025;-66
2021/12/01 04:13:08;;;;;;;4.18;2.92;;;;;;;7.46;100.00;99380.41;2064894;28;20099;-64
2021/12/01 04:14:09;;;;;;;5.60;3.00;;;;;;;7.46;100.00;99378.63;2065017;28;20026;-67
2021/12/01 04:15:11;;;;;;;4.40;3.20;;;;;;;7.47;100.00;99382.88;2073655;28;20045;-68
2021/12/01 04:16:12;;;;;;;3.58;2.83;;;;;;;7.46;100.00;99376.03;2073453;28;20089;-69
2021/12/01 04:17:12;;;;;;;5.07;2.60;;;;;;;7.45;100.00;99382.13;2073677;28;20132;-69
2021/12/01 04:18:12;;;;;;;5.23;2.50;;;;;;;7.42;100.00;99374.50;2073672;28;20026;-66
2021/12/01 04:19:12;;;;;;;4.10;2.63;;;;;;;7.42;100.00;99376.25;2073665;28;20113;-68
2021/12/01 04:20:15;;;;;;;3.93;2.73;;;;;;;7.42;100.00;99368.47;2073607;28;20045;-69
2021/12/01 04:21:16;;;;;;;3.83;2.17;;;;;;;7.40;100.00;99380.69;2073690;28;20025;-68
2021/12/01 04:22:16;;;;;;;4.23;2.47;;;;;;;7.41;100.00;99372.00;2073662;28;20030;-68
2021/12/01 04:23:16;;;;;;;3.73;2.90;;;;;;;7.41;100.00;99372.00;2073695;28;20075;-67
2021/12/01 04:24:17;;;;;;;5.13;2.73;;;;;;;7.41;100.00;99370.25;2073722;28;20036;-67
2021/12/01 04:25:18;;;;;;;4.07;2.45;;;;;;;7.43;100.00;99381.38;2073676;28;20075;-69
2021/12/01 04:26:22;;;;;;;4.30;2.58;;;;;;;7.43;100.00;99370.97;2073663;28;20022;-68
2021/12/01 04:27:22;;;;;;;3.60;2.03;;;;;;;7.42;100.00;99364.13;2073647;28;20548;-67
2021/12/01 04:28:22;;;;;;;3.13;2.28;;;;;;;7.40;100.00;99360.78;2073585;28;20034;-70
2021/12/01 04:29:24;;;;;;;4.30;3.03;;;;;;;7.38;100.00;99362.63;2064868;28;20113;-67
2021/12/01 04:30:25;;;;;;;3.35;2.00;;;;;;;7.38;100.00;99362.63;2064912;28;20399;-66
2021/12/01 04:31:26;;;;;;;;;;;;;;;7.36;100.00;99354.09;2065209;28;20045;-69
2021/12/01 04:32:26;;;;;;;3.33;2.45;;;;;;;7.34;100.00;99345.53;2056877;28;19933;-66
2021/12/01 04:33:27;;;;;;;4.43;2.10;;;;;;;7.33;100.00;99342.09;2064842;28;20050;-67
2021/12/01 04:34:27;;;;;;;3.57;2.50;;;;;;;7.32;100.00;99342.16;2073572;28;20030;-69
2021/12/01 04:35:28;;;;;;;3.80;2.30;;;;;;;7.31;100.00;99338.75;2073590;28;20065;-69
2021/12/01 04:36:32;;;;;;;3.42;2.50;;;;;;;7.31;100.00;99335.31;2064849;28;20033;-69
2021/12/01 04:37:32;;;;;;;3.10;2.15;;;;;;;7.31;100.00;99317.13;2065180;28;20022;-67
2021/12/01 04:38:32;;;;;;;4.67;2.40;;;;;;;7.31;100.00;99325.78;2073525;28;20109;-67
2021/12/01 04:39:33;;;;;;;3.43;2.27;;;;;;;7.31;100.00;99336.16;2075103;28;20022;-70
2021/12/01 04:40:34;;;;;;;2.78;1.65;;;;;;;7.33;100.00;99318.72;2066279;28;20030;-69
2021/12/01 04:41:40;;;;;;;4.00;2.40;;;;;;;7.34;100.00;99314.38;2066520;28;20055;-69
2021/12/01 04:42:40;;;;;;;3.92;2.17;;;;;;;7.33;100.00;99307.53;2075212;28;20021;-66
2021/12/01 04:43:41;;;;;;;3.70;2.13;;;;;;;7.31;100.00;99304.16;2075028;28;20077;-68
2021/12/01 04:44:41;;;;;;;4.47;2.57;;;;;;;7.30;100.00;99315.47;2075292;28;20034;-67
2021/12/01 04:45:42;;;;;;;6.50;2.40;;;;;;;7.30;100.00;99300.75;2075210;28;20297;-70
2021/12/01 04:46:45;;;;;;;3.35;2.03;;;;;;;7.30;100.00;99300.75;2075199;28;20479;-71
2021/12/01 04:47:52;;;;;;;3.67;2.20;;;;;;;7.29;100.00;99295.63;2075200;28;20021;-68
2021/12/01 04:48:52;;;;;;;3.55;2.03;;;;;;;7.29;100.00;99295.63;2075096;28;20468;-68
2021/12/01 04:49:53;;;;;;;3.93;2.43;;;;;;;7.29;100.00;99290.44;2075225;28;20022;-69
2021/12/01 04:50:54;;;;;;;2.90;2.07;;;;;;;7.29;100.00;99295.63;2075199;28;20088;-68
2021/12/01 04:51:55;;;;;;;;;;;;;;;7.30;100.00;99297.31;2075652;28;20020;-68
2021/12/01 04:52:58;;;;;;;3.88;1.95;;;;;;;7.31;100.00;99286.00;2066311;28;19917;-69
2021/12/01 04:53:59;;;;;;;4.28;2.28;;;;;;;7.30;100.00;99276.53;2066649;28;20018;-66
2021/12/01 04:54:59;;;;;;;3.47;1.92;;;;;;;7.29;100.00;99275.69;2075135;28;20048;-69
2021/12/01 04:55:59;;;;;;;3.70;2.13;;;;;;;7.30;100.00;99271.34;2075155;28;20479;-70